MMLP/LAP METAR and TAF weather

Enter ICAO airport designator
Station Type Date Time Source
MMLP METAR 2019/10/23 13:41 UTC NOAA

MMLP 231341Z 18005KT 10SM FEW030 18/17 A2990 RMK 8/500 HZY


Station Type Date Time Source
MMLP Decoded METAR 2019/10/23 13:41 UTC NOAA

La Paz International Airport, Mexico (MMLP) 24-04N 110-22W
Oct 23, 2019 - 09:41 AM EDT / 2019.10.23 1341 UTC
Wind: from the S (180 degrees) at 6 MPH (5 KT):0
Visibility: 10 mile(s):0
Sky conditions: mostly clear
Temperature: 64 F (18 C)
Dew Point: 62 F (17 C)
Relative Humidity: 93%
Pressure (altimeter): 29.9 in. Hg (1012 hPa)
ob: MMLP 231341Z 18005KT 10SM FEW030 18/17 A2990 RMK 8/500 HZY
cycle: 13

Station Type Date Time Source
MMLP TAF 2019/10/23 06:58 UTC NOAA

TAF MMLP 230458Z 2306/2406 15005KT P6SM SKC
FM231800 36008KT P6SM SCT030
BECMG 2403/2405 26004KT SKC

Example: see airport list